PWSweather.com
Personal Weather Stations
Station Observations
KNCCHINA3
Red Tractor Trail, China Grove, NC 28023

Red Tractor TrailChina Grove, NC 28023

Lat: 35.59751, Lon: -80.60201

Elevation: 800

Station Type: Oregon Scientific WMR 968

http://www.joesweathergarage.com

High Low Average
Temperature 75.4°F24.1°C 45.8°F7.7°C 62.9°F17.2°C
Dew Point 64.6°F18.1°C -7.3°F-21.8°C 41.8°F5.4°C
Winds 20.3 mph 32.7 kmh Calm Calm 7.0 mph WSW11.3 kmh WSW
Wind Gusts 34.8 mph56.0 kmh -- 14.0 mph22.5 kmh
Humidity 98% 6% 53%
Pressure 30.09 in1019.0 mb 29.74 in1007.1 mb -
Precipitation 0.00 in0.0 mm - -
Hour Temp Dew Point Humidity Winds Wind Gusts Pressure Precip Precip Rate Daily Precip Total
12:03 AM 64.7°F18.2°C 55.9°F13.3°C 73% 2.1 mph SSE3.4 kmh SSE 5.4 mph8.7 kmh 29.83 in1010.2 mb 0.00 in0.0 mm 0.00 in0.0 mm 0.00 in0.0 mm
12:08 AM 64.6°F18.1°C 55.9°F13.3°C 73% 3.4 mph SSE5.5 kmh SSE 5.0 mph8.0 kmh 29.83 in1010.2 mb 0.00 in0.0 mm 0.00 in0.0 mm 0.00 in0.0 mm
12:13 AM 64.6°F18.1°C 55.9°F13.3°C 73% Calm Calm 5.0 mph8.0 kmh 29.83 in1010.2 mb 0.00 in0.0 mm 0.00 in0.0 mm 0.00 in0.0 mm
12:18 AM 64.9°F18.3°C 56.1°F13.4°C 73% 4.6 mph S7.4 kmh S 5.8 mph9.3 kmh 29.83 in1010.2 mb 0.00 in0.0 mm 0.00 in0.0 mm 0.00 in0.0 mm
12:23 AM 64.9°F18.3°C 55.8°F13.2°C 72% 2.7 mph SSE4.3 kmh SSE 5.8 mph9.3 kmh 29.83 in1010.2 mb 0.00 in0.0 mm 0.00 in0.0 mm 0.00 in0.0 mm
12:28 AM 65.1°F18.4°C 56.0°F13.3°C 72% 2.3 mph S3.7 kmh S 5.4 mph8.7 kmh 29.83 in1010.2 mb 0.00 in0.0 mm 0.00 in0.0 mm 0.00 in0.0 mm
12:33 AM 65.1°F18.4°C 56.0°F13.3°C 72% 4.6 mph S7.4 kmh S 6.2 mph10.0 kmh 29.83 in1010.2 mb 0.00 in0.0 mm 0.00 in0.0 mm 0.00 in0.0 mm
12:39 AM 65.3°F18.5°C 56.2°F13.4°C 72% 3.8 mph S6.1 kmh S 6.2 mph10.0 kmh 29.83 in1010.2 mb 0.00 in0.0 mm 0.00 in0.0 mm 0.00 in0.0 mm
12:44 AM 65.5°F18.6°C 56.3°F13.5°C 72% 4.6 mph S7.4 kmh S 6.8 mph10.9 kmh 29.83 in1010.2 mb 0.00 in0.0 mm 0.00 in0.0 mm 0.00 in0.0 mm
12:49 AM 65.6°F18.7°C 56.1°F13.4°C 71% 5.4 mph S8.7 kmh S 8.6 mph13.8 kmh 29.83 in1010.2 mb 0.00 in0.0 mm 0.00 in0.0 mm 0.00 in0.0 mm
12:54 AM 66.2°F19.0°C 56.3°F13.5°C 70% 6.8 mph S10.9 kmh S 11.2 mph18.0 kmh 29.83 in1010.2 mb 0.00 in0.0 mm 0.00 in0.0 mm 0.00 in0.0 mm
12:59 AM 65.8°F18.8°C 56.3°F13.5°C 71% 2.7 mph S4.3 kmh S 11.2 mph18.0 kmh 29.83 in1010.2 mb 0.00 in0.0 mm 0.00 in0.0 mm 0.00 in0.0 mm
01:04 AM 65.5°F18.6°C 55.6°F13.1°C 70% 3.0 mph S4.8 kmh S 5.0 mph8.0 kmh 29.83 in1010.2 mb 0.00 in0.0 mm 0.00 in0.0 mm 0.00 in0.0 mm
01:09 AM 64.9°F18.3°C 55.0°F12.8°C 70% 2.1 mph S3.4 kmh S 5.0 mph8.0 kmh 29.83 in1010.2 mb 0.00 in0.0 mm 0.00 in0.0 mm 0.00 in0.0 mm
01:15 AM 64.6°F18.1°C 55.1°F12.8°C 71% 2.2 mph S3.5 kmh S 4.4 mph7.1 kmh 29.83 in1010.2 mb 0.00 in0.0 mm 0.00 in0.0 mm 0.00 in0.0 mm
01:20 AM 64.4°F18.0°C 55.3°F12.9°C 72% 3.9 mph S6.3 kmh S 6.2 mph10.0 kmh 29.83 in1010.2 mb 0.00 in0.0 mm 0.00 in0.0 mm 0.00 in0.0 mm
01:25 AM 65.3°F18.5°C 56.2°F13.4°C 72% 5.8 mph S9.3 kmh S 6.8 mph10.9 kmh 29.83 in1010.2 mb 0.00 in0.0 mm 0.00 in0.0 mm 0.00 in0.0 mm
01:30 AM 65.6°F18.7°C 56.1°F13.4°C 71% 4.9 mph S7.9 kmh S 6.8 mph10.9 kmh 29.83 in1010.2 mb 0.00 in0.0 mm 0.00 in0.0 mm 0.00 in0.0 mm
01:35 AM 65.8°F18.8°C 56.3°F13.5°C 71% 6.0 mph S9.7 kmh S 8.0 mph12.9 kmh 29.83 in1010.2 mb 0.00 in0.0 mm 0.00 in0.0 mm 0.00 in0.0 mm
01:40 AM 66.2°F19.0°C 56.3°F13.5°C 70% 6.8 mph S10.9 kmh S 11.6 mph18.7 kmh 29.80 in1009.1 mb 0.00 in0.0 mm 0.00 in0.0 mm 0.00 in0.0 mm
01:47 AM 66.0°F18.9°C 55.7°F13.2°C 69% 6.3 mph S10.1 kmh S 11.6 mph18.7 kmh 29.80 in1009.1 mb 0.00 in0.0 mm 0.00 in0.0 mm 0.00 in0.0 mm
01:52 AM 65.8°F18.8°C 55.9°F13.3°C 70% 5.4 mph S8.7 kmh S 8.6 mph13.8 kmh 29.80 in1009.1 mb 0.00 in0.0 mm 0.00 in0.0 mm 0.00 in0.0 mm
01:58 AM 65.8°F18.8°C 55.9°F13.3°C 70% 5.5 mph S8.9 kmh S 9.4 mph15.1 kmh 29.80 in1009.1 mb 0.00 in0.0 mm 0.00 in0.0 mm 0.00 in0.0 mm
02:03 AM 65.8°F18.8°C 55.9°F13.3°C 70% 5.8 mph S9.3 kmh S 9.4 mph15.1 kmh 29.80 in1009.1 mb 0.00 in0.0 mm 0.00 in0.0 mm 0.00 in0.0 mm
02:08 AM 65.8°F18.8°C 55.9°F13.3°C 70% 4.7 mph S7.6 kmh S 7.2 mph11.6 kmh 29.80 in1009.1 mb 0.00 in0.0 mm 0.00 in0.0 mm 0.00 in0.0 mm
02:13 AM 65.6°F18.7°C 56.1°F13.4°C 71% 5.6 mph S9.0 kmh S 7.2 mph11.6 kmh 29.80 in1009.1 mb 0.00 in0.0 mm 0.00 in0.0 mm 0.00 in0.0 mm
02:18 AM 66.2°F19.0°C 56.3°F13.5°C 70% 6.3 mph SSW10.1 kmh SSW 8.6 mph13.8 kmh 29.80 in1009.1 mb 0.00 in0.0 mm 0.00 in0.0 mm 0.00 in0.0 mm
02:23 AM 66.5°F19.2°C 56.5°F13.6°C 70% 6.9 mph S11.1 kmh S 11.6 mph18.7 kmh 29.80 in1009.1 mb 0.00 in0.0 mm 0.00 in0.0 mm 0.00 in0.0 mm
02:28 AM 66.5°F19.2°C 56.5°F13.6°C 70% 6.3 mph S10.1 kmh S 11.6 mph18.7 kmh 29.80 in1009.1 mb 0.00 in0.0 mm 0.00 in0.0 mm 0.00 in0.0 mm
02:33 AM 66.7°F19.3°C 57.1°F13.9°C 71% 8.5 mph S13.7 kmh S 17.4 mph28.0 kmh 29.80 in1009.1 mb 0.00 in0.0 mm 0.00 in0.0 mm 0.00 in0.0 mm
02:39 AM 66.9°F19.4°C 57.3°F14.1°C 71% 8.9 mph S14.3 kmh S 17.4 mph28.0 kmh 29.80 in1009.1 mb 0.00 in0.0 mm 0.00 in0.0 mm 0.00 in0.0 mm
02:44 AM 66.9°F19.4°C 57.3°F14.1°C 71% 6.3 mph S10.1 kmh S 11.2 mph18.0 kmh 29.80 in1009.1 mb 0.00 in0.0 mm 0.00 in0.0 mm 0.00 in0.0 mm
02:49 AM 67.1°F19.5°C 57.5°F14.2°C 71% 6.3 mph S10.1 kmh S 10.8 mph17.4 kmh 29.80 in1009.1 mb 0.00 in0.0 mm 0.00 in0.0 mm 0.00 in0.0 mm
02:54 AM 66.9°F19.4°C 57.3°F14.1°C 71% 5.3 mph S8.5 kmh S 10.8 mph17.4 kmh 29.80 in1009.1 mb 0.00 in0.0 mm 0.00 in0.0 mm 0.00 in0.0 mm
02:59 AM 66.5°F19.2°C 57.3°F14.1°C 72% 5.3 mph SSW8.5 kmh SSW 7.6 mph12.2 kmh 29.80 in1009.1 mb 0.00 in0.0 mm 0.00 in0.0 mm 0.00 in0.0 mm
03:04 AM 66.5°F19.2°C 57.3°F14.1°C 72% 6.2 mph SSW10.0 kmh SSW 7.6 mph12.2 kmh 29.80 in1009.1 mb 0.00 in0.0 mm 0.00 in0.0 mm 0.00 in0.0 mm
03:09 AM 66.5°F19.2°C 57.3°F14.1°C 72% 4.9 mph SSW7.9 kmh SSW 7.6 mph12.2 kmh 29.80 in1009.1 mb 0.00 in0.0 mm 0.00 in0.0 mm 0.00 in0.0 mm
03:14 AM 66.5°F19.2°C 57.7°F14.3°C 73% 5.4 mph SW8.7 kmh SW 7.6 mph12.2 kmh 29.80 in1009.1 mb 0.00 in0.0 mm 0.00 in0.0 mm 0.00 in0.0 mm
03:20 AM 66.4°F19.1°C 57.6°F14.2°C 73% 6.4 mph SSW10.3 kmh SSW 9.4 mph15.1 kmh 29.80 in1009.1 mb 0.00 in0.0 mm 0.00 in0.0 mm 0.00 in0.0 mm
03:25 AM 66.4°F19.1°C 58.0°F14.4°C 74% 6.2 mph S10.0 kmh S 9.8 mph15.8 kmh 29.80 in1009.1 mb 0.00 in0.0 mm 0.00 in0.0 mm 0.00 in0.0 mm
03:31 AM 66.4°F19.1°C 58.0°F14.4°C 74% 6.3 mph SSW10.1 kmh SSW 9.8 mph15.8 kmh 29.80 in1009.1 mb 0.00 in0.0 mm 0.00 in0.0 mm 0.00 in0.0 mm
03:36 AM 66.2°F19.0°C 58.1°F14.5°C 75% 6.7 mph S10.8 kmh S 8.6 mph13.8 kmh 29.80 in1009.1 mb 0.00 in0.0 mm 0.00 in0.0 mm 0.00 in0.0 mm
03:41 AM 66.2°F19.0°C 58.1°F14.5°C 75% 5.5 mph S8.9 kmh S 8.6 mph13.8 kmh 29.77 in1008.1 mb 0.00 in0.0 mm 0.00 in0.0 mm 0.00 in0.0 mm
03:46 AM 66.0°F18.9°C 58.3°F14.6°C 76% 5.9 mph S9.5 kmh S 8.0 mph12.9 kmh 29.77 in1008.1 mb 0.00 in0.0 mm 0.00 in0.0 mm 0.00 in0.0 mm
03:52 AM 65.8°F18.8°C 58.5°F14.7°C 77% 5.4 mph S8.7 kmh S 7.6 mph12.2 kmh 29.77 in1008.1 mb 0.00 in0.0 mm 0.00 in0.0 mm 0.00 in0.0 mm
03:57 AM 65.8°F18.8°C 58.8°F14.9°C 78% 6.8 mph SSW10.9 kmh SSW 8.0 mph12.9 kmh 29.77 in1008.1 mb 0.00 in0.0 mm 0.00 in0.0 mm 0.00 in0.0 mm
04:02 AM 65.6°F18.7°C 58.6°F14.8°C 78% 6.8 mph S10.9 kmh S 10.8 mph17.4 kmh 29.77 in1008.1 mb 0.00 in0.0 mm 0.00 in0.0 mm 0.00 in0.0 mm
04:07 AM 65.6°F18.7°C 58.6°F14.8°C 78% 6.7 mph S10.8 kmh S 11.2 mph18.0 kmh 29.74 in1007.1 mb 0.00 in0.0 mm 0.00 in0.0 mm 0.00 in0.0 mm
04:13 AM 65.3°F18.5°C 58.7°F14.8°C 79% 5.2 mph SSW8.4 kmh SSW 11.2 mph18.0 kmh 29.74 in1007.1 mb 0.00 in0.0 mm 0.00 in0.0 mm 0.00 in0.0 mm
04:18 AM 65.5°F18.6°C 59.2°F15.1°C 80% 7.8 mph S12.6 kmh S 11.6 mph18.7 kmh 29.74 in1007.1 mb 0.00 in0.0 mm 0.00 in0.0 mm 0.00 in0.0 mm
04:23 AM 65.5°F18.6°C 59.2°F15.1°C 80% 5.2 mph SSW8.4 kmh SSW 12.0 mph19.3 kmh 29.77 in1008.1 mb 0.00 in0.0 mm 0.00 in0.0 mm 0.00 in0.0 mm
04:28 AM 65.5°F18.6°C 59.2°F15.1°C 80% 5.5 mph S8.9 kmh S 12.0 mph19.3 kmh 29.77 in1008.1 mb 0.00 in0.0 mm 0.00 in0.0 mm 0.00 in0.0 mm
04:33 AM 65.5°F18.6°C 59.2°F15.1°C 80% 4.9 mph SW7.9 kmh SW 10.8 mph17.4 kmh 29.77 in1008.1 mb 0.00 in0.0 mm 0.00 in0.0 mm 0.00 in0.0 mm
04:38 AM 65.5°F18.6°C 59.5°F15.3°C 81% 6.1 mph S9.8 kmh S 8.6 mph13.8 kmh 29.77 in1008.1 mb 0.00 in0.0 mm 0.00 in0.0 mm 0.00 in0.0 mm
04:44 AM 65.5°F18.6°C 59.5°F15.3°C 81% 6.3 mph SSW10.1 kmh SSW 8.6 mph13.8 kmh 29.77 in1008.1 mb 0.00 in0.0 mm 0.00 in0.0 mm 0.00 in0.0 mm
04:49 AM 65.6°F18.7°C 59.6°F15.3°C 81% 6.7 mph SSW10.8 kmh SSW 13.8 mph22.2 kmh 29.77 in1008.1 mb 0.00 in0.0 mm 0.00 in0.0 mm 0.00 in0.0 mm
04:54 AM 65.8°F18.8°C 59.8°F15.4°C 81% 8.4 mph SW13.5 kmh SW 13.8 mph22.2 kmh 29.77 in1008.1 mb 0.00 in0.0 mm 0.00 in0.0 mm 0.00 in0.0 mm
04:59 AM 66.0°F18.9°C 60.0°F15.6°C 81% 7.1 mph S11.4 kmh S 13.8 mph22.2 kmh 29.77 in1008.1 mb 0.00 in0.0 mm 0.00 in0.0 mm 0.00 in0.0 mm
05:04 AM 66.0°F18.9°C 60.0°F15.6°C 81% 6.8 mph S10.9 kmh S 9.8 mph15.8 kmh 29.77 in1008.1 mb 0.00 in0.0 mm 0.00 in0.0 mm 0.00 in0.0 mm
05:09 AM 65.8°F18.8°C 60.2°F15.7°C 82% 6.1 mph S9.8 kmh S 9.8 mph15.8 kmh 29.77 in1008.1 mb 0.00 in0.0 mm 0.00 in0.0 mm 0.00 in0.0 mm
05:15 AM 65.8°F18.8°C 60.2°F15.7°C 82% 5.3 mph S8.5 kmh S 8.0 mph12.9 kmh 29.77 in1008.1 mb 0.00 in0.0 mm 0.00 in0.0 mm 0.00 in0.0 mm
05:20 AM 65.8°F18.8°C 60.2°F15.7°C 82% 5.6 mph SSW9.0 kmh SSW 8.0 mph12.9 kmh 29.77 in1008.1 mb 0.00 in0.0 mm 0.00 in0.0 mm 0.00 in0.0 mm
05:25 AM 65.8°F18.8°C 60.2°F15.7°C 82% 6.0 mph SW9.7 kmh SW 8.0 mph12.9 kmh 29.77 in1008.1 mb 0.00 in0.0 mm 0.00 in0.0 mm 0.00 in0.0 mm
05:30 AM 65.8°F18.8°C 60.5°F15.8°C 83% 6.5 mph S10.5 kmh S 9.4 mph15.1 kmh 29.77 in1008.1 mb 0.00 in0.0 mm 0.00 in0.0 mm 0.00 in0.0 mm
05:35 AM 65.8°F18.8°C 60.5°F15.8°C 83% 6.6 mph SSW10.6 kmh SSW 11.2 mph18.0 kmh 29.77 in1008.1 mb 0.00 in0.0 mm 0.00 in0.0 mm 0.00 in0.0 mm
05:40 AM 65.6°F18.7°C 60.3°F15.7°C 83% 5.7 mph S9.2 kmh S 11.2 mph18.0 kmh 29.77 in1008.1 mb 0.00 in0.0 mm 0.00 in0.0 mm 0.00 in0.0 mm
05:45 AM 65.8°F18.8°C 60.5°F15.8°C 83% 5.8 mph SSW9.3 kmh SSW 11.6 mph18.7 kmh 29.77 in1008.1 mb 0.00 in0.0 mm 0.00 in0.0 mm 0.00 in0.0 mm
05:50 AM 66.0°F18.9°C 60.4°F15.8°C 82% 5.1 mph SW8.2 kmh SW 11.6 mph18.7 kmh 29.77 in1008.1 mb 0.00 in0.0 mm 0.00 in0.0 mm 0.00 in0.0 mm
05:55 AM 66.0°F18.9°C 60.4°F15.8°C 82% 6.0 mph WSW9.7 kmh WSW 8.0 mph12.9 kmh 29.77 in1008.1 mb 0.00 in0.0 mm 0.00 in0.0 mm 0.00 in0.0 mm
06:00 AM 66.2°F19.0°C 60.6°F15.9°C 82% 5.2 mph SW8.4 kmh SW 8.0 mph12.9 kmh 29.77 in1008.1 mb 0.00 in0.0 mm 0.00 in0.0 mm 0.00 in0.0 mm
06:05 AM 66.4°F19.1°C 60.8°F16.0°C 82% 4.6 mph SW7.4 kmh SW 8.0 mph12.9 kmh 29.77 in1008.1 mb 0.00 in0.0 mm 0.00 in0.0 mm 0.00 in0.0 mm
06:10 AM 66.2°F19.0°C 60.6°F15.9°C 82% 5.4 mph WSW8.7 kmh WSW 8.0 mph12.9 kmh 29.77 in1008.1 mb 0.00 in0.0 mm 0.00 in0.0 mm 0.00 in0.0 mm
06:15 AM 66.5°F19.2°C 60.5°F15.8°C 81% 5.6 mph W9.0 kmh W 8.0 mph12.9 kmh 29.77 in1008.1 mb 0.00 in0.0 mm 0.00 in0.0 mm 0.00 in0.0 mm
06:20 AM 66.5°F19.2°C 60.5°F15.8°C 81% 5.8 mph NW9.3 kmh NW 8.0 mph12.9 kmh 29.77 in1008.1 mb 0.00 in0.0 mm 0.00 in0.0 mm 0.00 in0.0 mm
06:25 AM 66.5°F19.2°C 60.5°F15.8°C 81% 6.1 mph NW9.8 kmh NW 8.0 mph12.9 kmh 29.80 in1009.1 mb 0.00 in0.0 mm 0.00 in0.0 mm 0.00 in0.0 mm
06:30 AM 66.5°F19.2°C 60.2°F15.7°C 80% 4.8 mph NW7.7 kmh NW 8.0 mph12.9 kmh 29.80 in1009.1 mb 0.00 in0.0 mm 0.00 in0.0 mm 0.00 in0.0 mm
06:36 AM 66.2°F19.0°C 60.2°F15.7°C 81% 5.2 mph WNW8.4 kmh WNW 7.6 mph12.2 kmh 29.80 in1009.1 mb 0.00 in0.0 mm 0.00 in0.0 mm 0.00 in0.0 mm
06:41 AM 64.9°F18.3°C 60.6°F15.9°C 86% 6.8 mph W10.9 kmh W 8.6 mph13.8 kmh 29.80 in1009.1 mb 0.00 in0.0 mm 0.00 in0.0 mm 0.00 in0.0 mm
06:47 AM 63.7°F17.6°C 60.0°F15.6°C 88% 3.4 mph WSW5.5 kmh WSW 8.6 mph13.8 kmh 29.80 in1009.1 mb 0.00 in0.0 mm 0.00 in0.0 mm 0.00 in0.0 mm
06:52 AM 62.8°F17.1°C 59.8°F15.4°C 90% 2.4 mph SSW3.9 kmh SSW 5.8 mph9.3 kmh 29.77 in1008.1 mb 0.00 in0.0 mm 0.00 in0.0 mm 0.00 in0.0 mm
06:57 AM 62.2°F16.8°C 59.8°F15.4°C 92% 2.6 mph S4.2 kmh S 4.4 mph7.1 kmh 29.77 in1008.1 mb 0.00 in0.0 mm 0.00 in0.0 mm 0.00 in0.0 mm
07:02 AM 62.0°F16.7°C 59.6°F15.3°C 92% Calm Calm 3.2 mph5.1 kmh 29.77 in1008.1 mb 0.00 in0.0 mm 0.00 in0.0 mm 0.00 in0.0 mm
07:07 AM 61.7°F16.5°C 59.6°F15.3°C 93% Calm Calm 3.2 mph5.1 kmh 29.77 in1008.1 mb 0.00 in0.0 mm 0.00 in0.0 mm 0.00 in0.0 mm
07:12 AM 61.3°F16.3°C 59.2°F15.1°C 93% Calm Calm -- 29.77 in1008.1 mb 0.00 in0.0 mm 0.00 in0.0 mm 0.00 in0.0 mm
07:18 AM 61.3°F16.3°C 59.5°F15.3°C 94% Calm Calm -- 29.77 in1008.1 mb 0.00 in0.0 mm 0.00 in0.0 mm 0.00 in0.0 mm
07:23 AM 61.0°F16.1°C 59.5°F15.3°C 95% 1.8 mph SE2.9 kmh SE 1.8 mph2.9 kmh 29.77 in1008.1 mb 0.00 in0.0 mm 0.00 in0.0 mm 0.00 in0.0 mm
07:28 AM 60.8°F16.0°C 59.6°F15.3°C 96% Calm Calm 1.8 mph2.9 kmh 29.77 in1008.1 mb 0.00 in0.0 mm 0.00 in0.0 mm 0.00 in0.0 mm
07:33 AM 60.8°F16.0°C 59.6°F15.3°C 96% 3.5 mph SE5.6 kmh SE 4.0 mph6.4 kmh 29.77 in1008.1 mb 0.00 in0.0 mm 0.00 in0.0 mm 0.00 in0.0 mm
07:38 AM 60.8°F16.0°C 60.2°F15.7°C 98% 2.5 mph SW4.0 kmh SW 5.4 mph8.7 kmh 29.77 in1008.1 mb 0.00 in0.0 mm 0.00 in0.0 mm 0.00 in0.0 mm
07:43 AM 60.8°F16.0°C 60.2°F15.7°C 98% Calm Calm 5.4 mph8.7 kmh 29.77 in1008.1 mb 0.00 in0.0 mm 0.00 in0.0 mm 0.00 in0.0 mm
07:49 AM 61.0°F16.1°C 60.4°F15.8°C 98% Calm Calm -- 29.77 in1008.1 mb 0.00 in0.0 mm 0.00 in0.0 mm 0.00 in0.0 mm
07:54 AM 61.1°F16.2°C 60.5°F15.8°C 98% Calm Calm -- 29.77 in1008.1 mb 0.00 in0.0 mm 0.00 in0.0 mm 0.00 in0.0 mm
08:00 AM 61.1°F16.2°C 60.5°F15.8°C 98% Calm Calm 2.2 mph3.5 kmh 29.77 in1008.1 mb 0.00 in0.0 mm 0.00 in0.0 mm 0.00 in0.0 mm
08:05 AM 61.3°F16.3°C 60.7°F15.9°C 98% Calm Calm 2.2 mph3.5 kmh 29.77 in1008.1 mb 0.00 in0.0 mm 0.00 in0.0 mm 0.00 in0.0 mm
08:10 AM 61.3°F16.3°C 60.7°F15.9°C 98% Calm Calm -- 29.77 in1008.1 mb 0.00 in0.0 mm 0.00 in0.0 mm 0.00 in0.0 mm
08:15 AM 61.7°F16.5°C 61.1°F16.2°C 98% Calm Calm -- 29.77 in1008.1 mb 0.00 in0.0 mm 0.00 in0.0 mm 0.00 in0.0 mm
08:21 AM 61.9°F16.6°C 61.3°F16.3°C 98% 4.3 mph SSE6.9 kmh SSE 4.4 mph7.1 kmh 29.77 in1008.1 mb 0.00 in0.0 mm 0.00 in0.0 mm 0.00 in0.0 mm
08:26 AM 62.8°F17.1°C 62.2°F16.8°C 98% 4.4 mph SSW7.1 kmh SSW 5.4 mph8.7 kmh 29.74 in1007.1 mb 0.00 in0.0 mm 0.00 in0.0 mm 0.00 in0.0 mm
08:31 AM 63.7°F17.6°C 63.1°F17.3°C 98% 2.7 mph S4.3 kmh S 5.4 mph8.7 kmh 29.74 in1007.1 mb 0.00 in0.0 mm 0.00 in0.0 mm 0.00 in0.0 mm
08:36 AM 64.4°F18.0°C 63.8°F17.7°C 98% Calm Calm 5.0 mph8.0 kmh 29.74 in1007.1 mb 0.00 in0.0 mm 0.00 in0.0 mm 0.00 in0.0 mm
08:41 AM 65.1°F18.4°C 64.5°F18.1°C 98% 1.8 mph W2.9 kmh W 5.0 mph8.0 kmh 29.77 in1008.1 mb 0.00 in0.0 mm 0.00 in0.0 mm 0.00 in0.0 mm
08:46 AM 65.5°F18.6°C 64.6°F18.1°C 97% 3.4 mph SSE5.5 kmh SSE 4.4 mph7.1 kmh 29.77 in1008.1 mb 0.00 in0.0 mm 0.00 in0.0 mm 0.00 in0.0 mm
08:51 AM 65.8°F18.8°C 64.0°F17.8°C 94% 4.7 mph S7.6 kmh S 5.4 mph8.7 kmh 29.77 in1008.1 mb 0.00 in0.0 mm 0.00 in0.0 mm 0.00 in0.0 mm
08:56 AM 66.0°F18.9°C 63.8°F17.7°C 93% 2.1 mph SSE3.4 kmh SSE 5.4 mph8.7 kmh 29.74 in1007.1 mb 0.00 in0.0 mm 0.00 in0.0 mm 0.00 in0.0 mm
09:01 AM 66.2°F19.0°C 64.0°F17.8°C 93% 3.3 mph SW5.3 kmh SW 5.4 mph8.7 kmh 29.74 in1007.1 mb 0.00 in0.0 mm 0.00 in0.0 mm 0.00 in0.0 mm
09:06 AM 66.9°F19.4°C 64.4°F18.0°C 92% 3.6 mph SSE5.8 kmh SSE 6.2 mph10.0 kmh 29.74 in1007.1 mb 0.00 in0.0 mm 0.00 in0.0 mm 0.00 in0.0 mm
09:11 AM 67.3°F19.6°C 64.2°F17.9°C 90% 5.7 mph WSW9.2 kmh WSW 7.6 mph12.2 kmh 29.74 in1007.1 mb 0.00 in0.0 mm 0.00 in0.0 mm 0.00 in0.0 mm
09:16 AM 67.6°F19.8°C 63.9°F17.7°C 88% 4.6 mph WSW7.4 kmh WSW 7.6 mph12.2 kmh 29.74 in1007.1 mb 0.00 in0.0 mm 0.00 in0.0 mm 0.00 in0.0 mm
09:21 AM 67.8°F19.9°C 63.1°F17.3°C 85% 4.2 mph SSW6.8 kmh SSW 8.0 mph12.9 kmh 29.74 in1007.1 mb 0.00 in0.0 mm 0.00 in0.0 mm 0.00 in0.0 mm
09:26 AM 67.8°F19.9°C 62.5°F16.9°C 83% 4.8 mph SW7.7 kmh SW 8.0 mph12.9 kmh 29.74 in1007.1 mb 0.00 in0.0 mm 0.00 in0.0 mm 0.00 in0.0 mm
09:31 AM 67.6°F19.8°C 62.3°F16.8°C 83% 6.3 mph WNW10.1 kmh WNW 9.0 mph14.5 kmh 29.74 in1007.1 mb 0.00 in0.0 mm 0.00 in0.0 mm 0.00 in0.0 mm
09:36 AM 67.6°F19.8°C 61.9°F16.6°C 82% 6.0 mph SW9.7 kmh SW 9.0 mph14.5 kmh 29.74 in1007.1 mb 0.00 in0.0 mm 0.00 in0.0 mm 0.00 in0.0 mm
09:42 AM 67.8°F19.9°C 61.8°F16.6°C 81% 7.5 mph SW12.1 kmh SW 10.8 mph17.4 kmh 29.77 in1008.1 mb 0.00 in0.0 mm 0.00 in0.0 mm 0.00 in0.0 mm
09:47 AM 68.2°F20.1°C 62.2°F16.8°C 81% 6.0 mph WSW9.7 kmh WSW 11.2 mph18.0 kmh 29.77 in1008.1 mb 0.00 in0.0 mm 0.00 in0.0 mm 0.00 in0.0 mm
09:53 AM 68.9°F20.5°C 62.2°F16.8°C 79% 7.3 mph WSW11.7 kmh WSW 11.2 mph18.0 kmh 29.74 in1007.1 mb 0.00 in0.0 mm 0.00 in0.0 mm 0.00 in0.0 mm
09:58 AM 69.4°F20.8°C 62.3°F16.8°C 78% 6.3 mph SW10.1 kmh SW 9.8 mph15.8 kmh 29.74 in1007.1 mb 0.00 in0.0 mm 0.00 in0.0 mm 0.00 in0.0 mm
10:04 AM 69.1°F20.6°C 61.7°F16.5°C 77% 5.3 mph SW8.5 kmh SW 12.0 mph19.3 kmh 29.74 in1007.1 mb 0.00 in0.0 mm 0.00 in0.0 mm 0.00 in0.0 mm
10:09 AM 68.9°F20.5°C 61.1°F16.2°C 76% 6.8 mph WSW10.9 kmh WSW 13.0 mph20.9 kmh 29.74 in1007.1 mb 0.00 in0.0 mm 0.00 in0.0 mm 0.00 in0.0 mm
10:16 AM 69.8°F21.0°C 61.6°F16.4°C 75% 6.0 mph WSW9.7 kmh WSW 13.0 mph20.9 kmh 29.74 in1007.1 mb 0.00 in0.0 mm 0.00 in0.0 mm 0.00 in0.0 mm
10:21 AM 69.6°F20.9°C 60.7°F15.9°C 73% 7.4 mph WSW11.9 kmh WSW 11.6 mph18.7 kmh 29.74 in1007.1 mb 0.00 in0.0 mm 0.00 in0.0 mm 0.00 in0.0 mm
10:26 AM 70.0°F21.1°C 61.1°F16.2°C 73% 7.1 mph W11.4 kmh W 11.6 mph18.7 kmh 29.74 in1007.1 mb 0.00 in0.0 mm 0.00 in0.0 mm 0.00 in0.0 mm
10:31 AM 70.3°F21.3°C 60.6°F15.9°C 71% 9.4 mph W15.1 kmh W 13.4 mph21.6 kmh 29.74 in1007.1 mb 0.00 in0.0 mm 0.00 in0.0 mm 0.00 in0.0 mm
10:36 AM 70.5°F21.4°C 60.4°F15.8°C 70% 9.9 mph W15.9 kmh W 15.2 mph24.5 kmh 29.74 in1007.1 mb 0.00 in0.0 mm 0.00 in0.0 mm 0.00 in0.0 mm
10:41 AM 70.5°F21.4°C 60.0°F15.6°C 69% 10.7 mph WSW17.2 kmh WSW 15.2 mph24.5 kmh 29.77 in1008.1 mb 0.00 in0.0 mm 0.00 in0.0 mm 0.00 in0.0 mm
10:47 AM 71.0°F21.7°C 60.5°F15.8°C 69% 10.4 mph W16.7 kmh W 15.2 mph24.5 kmh 29.77 in1008.1 mb 0.00 in0.0 mm 0.00 in0.0 mm 0.00 in0.0 mm
10:52 AM 70.7°F21.5°C 60.6°F15.9°C 70% 8.5 mph W13.7 kmh W 15.2 mph24.5 kmh 29.74 in1007.1 mb 0.00 in0.0 mm 0.00 in0.0 mm 0.00 in0.0 mm
10:58 AM 70.9°F21.6°C 60.0°F15.6°C 68% 8.0 mph W12.9 kmh W 17.4 mph28.0 kmh 29.74 in1007.1 mb 0.00 in0.0 mm 0.00 in0.0 mm 0.00 in0.0 mm
11:02 AM 71.4°F21.9°C 60.8°F16.0°C 69% 5.8 mph W9.3 kmh W 17.4 mph28.0 kmh 29.74 in1007.1 mb 0.00 in0.0 mm 0.00 in0.0 mm 0.00 in0.0 mm
11:09 AM 73.7°F23.2°C 61.8°F16.6°C 66% 6.9 mph NW11.1 kmh NW 8.6 mph13.8 kmh 29.77 in1008.1 mb 0.00 in0.0 mm 0.00 in0.0 mm 0.00 in0.0 mm
11:14 AM 74.6°F23.7°C 61.8°F16.6°C 64% 7.9 mph W12.7 kmh W 14.8 mph23.8 kmh 29.77 in1008.1 mb 0.00 in0.0 mm 0.00 in0.0 mm 0.00 in0.0 mm
11:19 AM 74.8°F23.8°C 61.1°F16.2°C 62% 8.0 mph WNW12.9 kmh WNW 14.8 mph23.8 kmh 29.77 in1008.1 mb 0.00 in0.0 mm 0.00 in0.0 mm 0.00 in0.0 mm
11:24 AM 73.6°F23.1°C 58.5°F14.7°C 59% 11.5 mph WNW18.5 kmh WNW 17.0 mph27.4 kmh 29.77 in1008.1 mb 0.00 in0.0 mm 0.00 in0.0 mm 0.00 in0.0 mm
11:30 AM 73.4°F23.0°C 58.8°F14.9°C 60% 11.7 mph W18.8 kmh W 17.0 mph27.4 kmh 29.77 in1008.1 mb 0.00 in0.0 mm 0.00 in0.0 mm 0.00 in0.0 mm
11:35 AM 72.8°F22.7°C 59.2°F15.1°C 62% 8.7 mph W14.0 kmh W 15.6 mph25.1 kmh 29.77 in1008.1 mb 0.00 in0.0 mm 0.00 in0.0 mm 0.00 in0.0 mm
11:40 AM 72.8°F22.7°C 59.2°F15.1°C 62% 9.3 mph WNW15.0 kmh WNW 14.8 mph23.8 kmh 29.77 in1008.1 mb 0.00 in0.0 mm 0.00 in0.0 mm 0.00 in0.0 mm
11:45 AM 72.8°F22.7°C 59.2°F15.1°C 62% 8.9 mph W14.3 kmh W 13.0 mph20.9 kmh 29.77 in1008.1 mb 0.00 in0.0 mm 0.00 in0.0 mm 0.00 in0.0 mm
11:51 AM 71.9°F22.2°C 58.3°F14.6°C 62% 13.3 mph W21.4 kmh W 20.2 mph32.5 kmh 29.77 in1008.1 mb 0.00 in0.0 mm 0.00 in0.0 mm 0.00 in0.0 mm
11:56 AM 72.5°F22.5°C 58.9°F14.9°C 62% 9.2 mph WNW14.8 kmh WNW 20.2 mph32.5 kmh 29.77 in1008.1 mb 0.00 in0.0 mm 0.00 in0.0 mm 0.00 in0.0 mm
12:01 PM 72.8°F22.7°C 58.7°F14.8°C 61% 8.5 mph NW13.7 kmh NW 19.2 mph30.9 kmh 29.77 in1008.1 mb 0.00 in0.0 mm 0.00 in0.0 mm 0.00 in0.0 mm
12:06 PM 73.6°F23.1°C 59.5°F15.3°C 61% 9.0 mph WNW14.5 kmh WNW 19.2 mph30.9 kmh 29.77 in1008.1 mb 0.00 in0.0 mm 0.00 in0.0 mm 0.00 in0.0 mm
12:12 PM 73.7°F23.2°C 58.1°F14.5°C 58% 10.2 mph W16.4 kmh W 13.0 mph20.9 kmh 29.77 in1008.1 mb 0.00 in0.0 mm 0.00 in0.0 mm 0.00 in0.0 mm
12:17 PM 72.5°F22.5°C 57.5°F14.2°C 59% 9.7 mph W15.6 kmh W 14.8 mph23.8 kmh 29.77 in1008.1 mb 0.00 in0.0 mm 0.00 in0.0 mm 0.00 in0.0 mm
12:24 PM 71.8°F22.1°C 54.9°F12.7°C 55% 13.9 mph WNW22.4 kmh WNW 17.0 mph27.4 kmh 29.80 in1009.1 mb 0.00 in0.0 mm 0.00 in0.0 mm 0.00 in0.0 mm
12:29 PM 72.3°F22.4°C 53.7°F12.1°C 52% 11.5 mph NW18.5 kmh NW 17.0 mph27.4 kmh 29.80 in1009.1 mb 0.00 in0.0 mm 0.00 in0.0 mm 0.00 in0.0 mm
12:34 PM 72.3°F22.4°C 52.1°F11.2°C 49% 8.4 mph NW13.5 kmh NW 15.6 mph25.1 kmh 29.80 in1009.1 mb 0.00 in0.0 mm 0.00 in0.0 mm 0.00 in0.0 mm
12:39 PM 73.0°F22.8°C 51.5°F10.8°C 47% 12.1 mph N19.5 kmh N 15.6 mph25.1 kmh 29.80 in1009.1 mb 0.00 in0.0 mm 0.00 in0.0 mm 0.00 in0.0 mm
12:45 PM 74.5°F23.6°C 52.3°F11.3°C 46% 10.2 mph NW16.4 kmh NW 25.0 mph40.2 kmh 29.80 in1009.1 mb 0.00 in0.0 mm 0.00 in0.0 mm 0.00 in0.0 mm
12:50 PM 75.4°F24.1°C 52.5°F11.4°C 45% 8.0 mph NW12.9 kmh NW 25.0 mph40.2 kmh 29.80 in1009.1 mb 0.00 in0.0 mm 0.00 in0.0 mm 0.00 in0.0 mm
12:56 PM 75.4°F24.1°C 50.6°F10.3°C 42% 10.3 mph NNW16.6 kmh NNW 17.0 mph27.4 kmh 29.80 in1009.1 mb 0.00 in0.0 mm 0.00 in0.0 mm 0.00 in0.0 mm
01:01 PM 75.0°F23.9°C 49.6°F9.8°C 41% 11.0 mph NW17.7 kmh NW 17.0 mph27.4 kmh 29.80 in1009.1 mb 0.00 in0.0 mm 0.00 in0.0 mm 0.00 in0.0 mm
01:06 PM 73.6°F23.1°C 49.0°F9.4°C 42% 9.1 mph NW14.6 kmh NW 17.8 mph28.6 kmh 29.80 in1009.1 mb 0.00 in0.0 mm 0.00 in0.0 mm 0.00 in0.0 mm
01:11 PM 72.5°F22.5°C 48.0°F8.9°C 42% 11.4 mph NNW18.3 kmh NNW 18.4 mph29.6 kmh 29.80 in1009.1 mb 0.00 in0.0 mm 0.00 in0.0 mm 0.00 in0.0 mm
01:16 PM 70.1°F21.2°C 45.8°F7.7°C 42% 18.2 mph N29.3 kmh N 26.4 mph42.5 kmh 29.80 in1009.1 mb 0.00 in0.0 mm 0.00 in0.0 mm 0.00 in0.0 mm
01:21 PM 68.3°F20.2°C 42.9°F6.1°C 40% 20.3 mph N32.7 kmh N 30.4 mph48.9 kmh 29.80 in1009.1 mb 0.00 in0.0 mm 0.00 in0.0 mm 0.00 in0.0 mm
01:26 PM 68.5°F20.3°C 43.1°F6.2°C 40% 13.5 mph N21.7 kmh N 30.4 mph48.9 kmh 29.80 in1009.1 mb 0.00 in0.0 mm 0.00 in0.0 mm 0.00 in0.0 mm
01:31 PM 69.1°F20.6°C 42.9°F6.1°C 39% 12.0 mph NW19.3 kmh NW 29.6 mph47.6 kmh 29.80 in1009.1 mb 0.00 in0.0 mm 0.00 in0.0 mm 0.00 in0.0 mm
01:39 PM 68.3°F20.2°C 42.2°F5.7°C 39% 10.3 mph NW16.6 kmh NW 30.8 mph49.6 kmh 29.80 in1009.1 mb 0.00 in0.0 mm 0.00 in0.0 mm 0.00 in0.0 mm
01:43 PM 67.8°F19.9°C 41.1°F5.1°C 38% 9.7 mph N15.6 kmh N 30.8 mph49.6 kmh 29.80 in1009.1 mb 0.00 in0.0 mm 0.00 in0.0 mm 0.00 in0.0 mm
01:50 PM 68.0°F20.0°C 39.8°F4.3°C 36% 11.7 mph N18.8 kmh N 23.8 mph38.3 kmh 29.80 in1009.1 mb 0.00 in0.0 mm 0.00 in0.0 mm 0.00 in0.0 mm
01:55 PM 68.2°F20.1°C 40.0°F4.4°C 36% 12.6 mph NNW20.3 kmh NNW 34.8 mph56.0 kmh 29.83 in1010.2 mb 0.00 in0.0 mm 0.00 in0.0 mm 0.00 in0.0 mm
02:00 PM 67.6°F19.8°C 39.5°F4.2°C 36% 11.6 mph NNW18.7 kmh NNW 34.8 mph56.0 kmh 29.83 in1010.2 mb 0.00 in0.0 mm 0.00 in0.0 mm 0.00 in0.0 mm
02:05 PM 68.0°F20.0°C 39.8°F4.3°C 36% 9.9 mph N15.9 kmh N 25.6 mph41.2 kmh 29.83 in1010.2 mb 0.00 in0.0 mm 0.00 in0.0 mm 0.00 in0.0 mm
02:10 PM 68.0°F20.0°C 39.1°F3.9°C 35% 9.8 mph NW15.8 kmh NW 16.2 mph26.1 kmh 29.83 in1010.2 mb 0.00 in0.0 mm 0.00 in0.0 mm 0.00 in0.0 mm
02:15 PM 68.5°F20.3°C 39.5°F4.2°C 35% 11.5 mph N18.5 kmh N 25.0 mph40.2 kmh 29.83 in1010.2 mb 0.00 in0.0 mm 0.00 in0.0 mm 0.00 in0.0 mm
02:21 PM 68.2°F20.1°C 38.5°F3.6°C 34% 15.2 mph N24.5 kmh N 33.6 mph54.1 kmh 29.83 in1010.2 mb 0.00 in0.0 mm 0.00 in0.0 mm 0.00 in0.0 mm
02:26 PM 68.9°F20.5°C 39.1°F3.9°C 34% 10.1 mph NNW16.3 kmh NNW 33.6 mph54.1 kmh 29.83 in1010.2 mb 0.00 in0.0 mm 0.00 in0.0 mm 0.00 in0.0 mm
02:31 PM 68.2°F20.1°C 38.5°F3.6°C 34% 11.0 mph N17.7 kmh N 21.4 mph34.4 kmh 29.83 in1010.2 mb 0.00 in0.0 mm 0.00 in0.0 mm 0.00 in0.0 mm
02:36 PM 68.2°F20.1°C 37.8°F3.2°C 33% 15.3 mph N24.6 kmh N 24.6 mph39.6 kmh 29.83 in1010.2 mb 0.00 in0.0 mm 0.00 in0.0 mm 0.00 in0.0 mm
02:41 PM 68.9°F20.5°C 39.1°F3.9°C 34% 9.4 mph NNW15.1 kmh NNW 24.6 mph39.6 kmh 29.85 in1010.8 mb 0.00 in0.0 mm 0.00 in0.0 mm 0.00 in0.0 mm
02:46 PM 68.7°F20.4°C 39.0°F3.9°C 34% 8.5 mph NW13.7 kmh NW 24.6 mph39.6 kmh 29.85 in1010.8 mb 0.00 in0.0 mm 0.00 in0.0 mm 0.00 in0.0 mm
02:52 PM 68.3°F20.2°C 37.8°F3.2°C 33% 13.3 mph NNW21.4 kmh NNW 20.6 mph33.2 kmh 29.85 in1010.8 mb 0.00 in0.0 mm 0.00 in0.0 mm 0.00 in0.0 mm
02:57 PM 68.3°F20.2°C 37.8°F3.2°C 33% 11.3 mph N18.2 kmh N 20.6 mph33.2 kmh 29.85 in1010.8 mb 0.00 in0.0 mm 0.00 in0.0 mm 0.00 in0.0 mm
03:02 PM 68.2°F20.1°C 37.8°F3.2°C 33% 13.3 mph N21.4 kmh N 21.4 mph34.4 kmh 29.85 in1010.8 mb 0.00 in0.0 mm 0.00 in0.0 mm 0.00 in0.0 mm
03:07 PM 67.4°F19.7°C 37.1°F2.8°C 33% 10.1 mph NW16.3 kmh NW 21.4 mph34.4 kmh 29.85 in1010.8 mb 0.00 in0.0 mm 0.00 in0.0 mm 0.00 in0.0 mm
03:12 PM 67.1°F19.5°C 36.8°F2.7°C 33% 9.9 mph N15.9 kmh N 19.6 mph31.5 kmh 29.85 in1010.8 mb 0.00 in0.0 mm 0.00 in0.0 mm 0.00 in0.0 mm
03:17 PM 66.4°F19.1°C 36.2°F2.3°C 33% 11.5 mph N18.5 kmh N 25.0 mph40.2 kmh 29.85 in1010.8 mb 0.00 in0.0 mm 0.00 in0.0 mm 0.00 in0.0 mm
03:24 PM 66.4°F19.1°C 36.2°F2.3°C 33% 13.7 mph N22.0 kmh N 20.6 mph33.2 kmh 29.83 in1010.2 mb 0.00 in0.0 mm 0.00 in0.0 mm 0.00 in0.0 mm
03:29 PM 65.6°F18.7°C 35.5°F1.9°C 33% 13.4 mph N21.6 kmh N 26.4 mph42.5 kmh 29.83 in1010.2 mb 0.00 in0.0 mm 0.00 in0.0 mm 0.00 in0.0 mm
03:34 PM 66.2°F19.0°C 36.0°F2.2°C 33% 8.5 mph NNW13.7 kmh NNW 26.4 mph42.5 kmh 29.83 in1010.2 mb 0.00 in0.0 mm 0.00 in0.0 mm 0.00 in0.0 mm
03:39 PM 65.6°F18.7°C 35.5°F1.9°C 33% 7.7 mph N12.4 kmh N 24.2 mph38.9 kmh 29.83 in1010.2 mb 0.00 in0.0 mm 0.00 in0.0 mm 0.00 in0.0 mm
03:44 PM 65.3°F18.5°C 35.2°F1.8°C 33% 9.8 mph NW15.8 kmh NW 24.2 mph38.9 kmh 29.83 in1010.2 mb 0.00 in0.0 mm 0.00 in0.0 mm 0.00 in0.0 mm
03:49 PM 64.9°F18.3°C 34.9°F1.6°C 33% 9.1 mph NNW14.6 kmh NNW 21.0 mph33.8 kmh 29.83 in1010.2 mb 0.00 in0.0 mm 0.00 in0.0 mm 0.00 in0.0 mm
03:54 PM 64.6°F18.1°C 33.8°F1.0°C 32% 11.8 mph N19.0 kmh N 19.2 mph30.9 kmh 29.83 in1010.2 mb 0.00 in0.0 mm 0.00 in0.0 mm 0.00 in0.0 mm
03:59 PM 65.1°F18.4°C 35.0°F1.7°C 33% 7.8 mph N12.6 kmh N 19.2 mph30.9 kmh 29.83 in1010.2 mb 0.00 in0.0 mm 0.00 in0.0 mm 0.00 in0.0 mm
04:04 PM 65.3°F18.5°C 34.4°F1.3°C 32% 8.9 mph WNW14.3 kmh WNW 15.6 mph25.1 kmh 29.83 in1010.2 mb 0.00 in0.0 mm 0.00 in0.0 mm 0.00 in0.0 mm
04:09 PM 64.7°F18.2°C 33.1°F0.6°C 31% 10.1 mph NNW16.3 kmh NNW 28.6 mph46.0 kmh 29.83 in1010.2 mb 0.00 in0.0 mm 0.00 in0.0 mm 0.00 in0.0 mm
04:15 PM 64.7°F18.2°C 33.1°F0.6°C 31% 9.1 mph N14.6 kmh N 28.6 mph46.0 kmh 29.83 in1010.2 mb 0.00 in0.0 mm 0.00 in0.0 mm 0.00 in0.0 mm
04:20 PM 64.6°F18.1°C 32.2°F0.1°C 30% 8.0 mph NNW12.9 kmh NNW 25.0 mph40.2 kmh 29.83 in1010.2 mb 0.00 in0.0 mm 0.00 in0.0 mm 0.00 in0.0 mm
04:25 PM 64.6°F18.1°C 32.2°F0.1°C 30% 15.1 mph N24.3 kmh N 32.6 mph52.5 kmh 29.83 in1010.2 mb 0.00 in0.0 mm 0.00 in0.0 mm 0.00 in0.0 mm
04:30 PM 64.0°F17.8°C 30.0°F-1.1°C 28% 11.9 mph N19.2 kmh N 32.6 mph52.5 kmh 29.83 in1010.2 mb 0.00 in0.0 mm 0.00 in0.0 mm 0.00 in0.0 mm
04:35 PM 64.9°F18.3°C 31.7°F-0.2°C 29% 8.6 mph NNW13.8 kmh NNW 25.0 mph40.2 kmh 29.83 in1010.2 mb 0.00 in0.0 mm 0.00 in0.0 mm 0.00 in0.0 mm
04:40 PM 65.3°F18.5°C 31.1°F-0.5°C 28% 9.0 mph N14.5 kmh N 17.0 mph27.4 kmh 29.88 in1011.9 mb 0.00 in0.0 mm 0.00 in0.0 mm 0.00 in0.0 mm
04:46 PM 65.3°F18.5°C 27.4°F-2.6°C 24% 13.8 mph N22.2 kmh N 29.0 mph46.7 kmh 29.88 in1011.9 mb 0.00 in0.0 mm 0.00 in0.0 mm 0.00 in0.0 mm
04:51 PM 65.5°F18.6°C 28.6°F-1.9°C 25% 7.7 mph N12.4 kmh N 29.0 mph46.7 kmh 29.88 in1011.9 mb 0.00 in0.0 mm 0.00 in0.0 mm 0.00 in0.0 mm
04:56 PM 64.6°F18.1°C 26.8°F-2.9°C 24% 10.7 mph N17.2 kmh N 24.6 mph39.6 kmh 29.88 in1011.9 mb 0.00 in0.0 mm 0.00 in0.0 mm 0.00 in0.0 mm
05:01 PM 64.4°F18.0°C 25.6°F-3.6°C 23% 11.8 mph N19.0 kmh N 26.8 mph43.1 kmh 29.88 in1011.9 mb 0.00 in0.0 mm 0.00 in0.0 mm 0.00 in0.0 mm
05:06 PM 64.2°F17.9°C 25.5°F-3.6°C 23% 16.0 mph N25.7 kmh N 28.2 mph45.4 kmh 29.88 in1011.9 mb 0.00 in0.0 mm 0.00 in0.0 mm 0.00 in0.0 mm
05:11 PM 65.5°F18.6°C 26.6°F-3.0°C 23% 9.0 mph N14.5 kmh N 28.2 mph45.4 kmh 29.88 in1011.9 mb 0.00 in0.0 mm 0.00 in0.0 mm 0.00 in0.0 mm
05:17 PM 65.3°F18.5°C 26.4°F-3.1°C 23% 11.9 mph N19.2 kmh N 29.0 mph46.7 kmh 29.88 in1011.9 mb 0.00 in0.0 mm 0.00 in0.0 mm 0.00 in0.0 mm
05:22 PM 64.9°F18.3°C 26.1°F-3.3°C 23% 9.9 mph NW15.9 kmh NW 29.0 mph46.7 kmh 29.88 in1011.9 mb 0.00 in0.0 mm 0.00 in0.0 mm 0.00 in0.0 mm
05:27 PM 64.0°F17.8°C 19.6°F-6.9°C 18% 16.5 mph N26.6 kmh N 26.0 mph41.8 kmh 29.88 in1011.9 mb 0.00 in0.0 mm 0.00 in0.0 mm 0.00 in0.0 mm
05:33 PM 64.2°F17.9°C 25.5°F-3.6°C 23% 10.4 mph NNW16.7 kmh NNW 26.0 mph41.8 kmh 29.88 in1011.9 mb 0.00 in0.0 mm 0.00 in0.0 mm 0.00 in0.0 mm
05:38 PM 65.3°F18.5°C 26.4°F-3.1°C 23% 7.3 mph NW11.7 kmh NW 21.0 mph33.8 kmh 29.88 in1011.9 mb 0.00 in0.0 mm 0.00 in0.0 mm 0.00 in0.0 mm
05:43 PM 65.5°F18.6°C 26.6°F-3.0°C 23% 8.9 mph NW14.3 kmh NW 16.2 mph26.1 kmh 29.88 in1011.9 mb 0.00 in0.0 mm 0.00 in0.0 mm 0.00 in0.0 mm
05:48 PM 65.3°F18.5°C 16.3°F-8.7°C 15% 10.8 mph N17.4 kmh N 19.2 mph30.9 kmh 29.88 in1011.9 mb 0.00 in0.0 mm 0.00 in0.0 mm 0.00 in0.0 mm
05:53 PM 64.9°F18.3°C 26.1°F-3.3°C 23% 8.5 mph NNW13.7 kmh NNW 22.0 mph35.4 kmh 29.91 in1012.9 mb 0.00 in0.0 mm 0.00 in0.0 mm 0.00 in0.0 mm
05:59 PM 64.6°F18.1°C 22.5°F-5.3°C 20% 7.0 mph N11.3 kmh N 22.0 mph35.4 kmh 29.91 in1012.9 mb 0.00 in0.0 mm 0.00 in0.0 mm 0.00 in0.0 mm
06:04 PM 64.2°F17.9°C 15.5°F-9.2°C 15% 10.6 mph N17.1 kmh N 21.4 mph34.4 kmh 29.91 in1012.9 mb 0.00 in0.0 mm 0.00 in0.0 mm 0.00 in0.0 mm
06:09 PM 63.7°F17.6°C 11.7°F-11.3°C 13% 13.3 mph N21.4 kmh N 28.2 mph45.4 kmh 29.91 in1012.9 mb 0.00 in0.0 mm 0.00 in0.0 mm 0.00 in0.0 mm
06:14 PM 63.1°F17.3°C 7.5°F-13.6°C 11% 14.9 mph N24.0 kmh N 28.2 mph45.4 kmh 29.91 in1012.9 mb 0.00 in0.0 mm 0.00 in0.0 mm 0.00 in0.0 mm
06:19 PM 62.9°F17.2°C 11.1°F-11.6°C 13% 8.3 mph N13.4 kmh N 26.4 mph42.5 kmh 29.91 in1012.9 mb 0.00 in0.0 mm 0.00 in0.0 mm 0.00 in0.0 mm
06:24 PM 62.9°F17.2°C 0.3°F-17.6°C 8% 9.2 mph NNW14.8 kmh NNW 27.2 mph43.8 kmh 29.88 in1011.9 mb 0.00 in0.0 mm 0.00 in0.0 mm 0.00 in0.0 mm
06:30 PM 62.0°F16.7°C -6.1°F-21.2°C 6% 14.9 mph N24.0 kmh N 32.2 mph51.8 kmh 29.88 in1011.9 mb 0.00 in0.0 mm 0.00 in0.0 mm 0.00 in0.0 mm
06:35 PM 61.5°F16.4°C -6.5°F-21.4°C 6% 9.6 mph NNW15.4 kmh NNW 32.2 mph51.8 kmh 29.88 in1011.9 mb 0.00 in0.0 mm 0.00 in0.0 mm 0.00 in0.0 mm
06:40 PM 61.1°F16.2°C -6.8°F-21.6°C 6% 13.2 mph N21.2 kmh N 24.2 mph38.9 kmh 29.91 in1012.9 mb 0.00 in0.0 mm 0.00 in0.0 mm 0.00 in0.0 mm
06:45 PM 60.8°F16.0°C -7.0°F-21.7°C 6% 12.0 mph N19.3 kmh N 24.2 mph38.9 kmh 29.91 in1012.9 mb 0.00 in0.0 mm 0.00 in0.0 mm 0.00 in0.0 mm
06:52 PM 60.4°F15.8°C -7.3°F-21.8°C 6% 17.9 mph N28.8 kmh N 30.8 mph49.6 kmh 29.91 in1012.9 mb 0.00 in0.0 mm 0.00 in0.0 mm 0.00 in0.0 mm
06:57 PM 60.2°F15.7°C 0.8°F-17.3°C 9% 7.0 mph N11.3 kmh N 30.8 mph49.6 kmh 29.91 in1012.9 mb 0.00 in0.0 mm 0.00 in0.0 mm 0.00 in0.0 mm
07:02 PM 60.1°F15.6°C -4.5°F-20.3°C 7% 10.5 mph NNW16.9 kmh NNW 15.2 mph24.5 kmh 29.91 in1012.9 mb 0.00 in0.0 mm 0.00 in0.0 mm 0.00 in0.0 mm
07:08 PM 59.8°F15.4°C -4.8°F-20.4°C 7% 13.0 mph N20.9 kmh N 21.4 mph34.4 kmh 29.94 in1013.9 mb 0.00 in0.0 mm 0.00 in0.0 mm 0.00 in0.0 mm
07:12 PM 59.6°F15.3°C 0.3°F-17.6°C 9% 6.7 mph N10.8 kmh N 21.4 mph34.4 kmh 29.94 in1013.9 mb 0.00 in0.0 mm 0.00 in0.0 mm 0.00 in0.0 mm
07:18 PM 59.4°F15.2°C 0.1°F-17.7°C 9% 9.8 mph N15.8 kmh N 20.6 mph33.2 kmh 29.94 in1013.9 mb 0.00 in0.0 mm 0.00 in0.0 mm 0.00 in0.0 mm
07:22 PM 58.9°F14.9°C -5.5°F-20.8°C 7% 9.7 mph N15.6 kmh N 18.8 mph30.3 kmh 29.94 in1013.9 mb 0.00 in0.0 mm 0.00 in0.0 mm 0.00 in0.0 mm
07:28 PM 58.5°F14.7°C -0.6°F-18.1°C 9% 7.6 mph NW12.2 kmh NW 14.4 mph23.2 kmh 29.94 in1013.9 mb 0.00 in0.0 mm 0.00 in0.0 mm 0.00 in0.0 mm
07:33 PM 58.2°F14.6°C -0.8°F-18.2°C 9% 6.6 mph NW10.6 kmh NW 11.2 mph18.0 kmh 29.94 in1013.9 mb 0.00 in0.0 mm 0.00 in0.0 mm 0.00 in0.0 mm
07:38 PM 57.6°F14.2°C 8.5°F-13.1°C 14% 5.9 mph NNW9.5 kmh NNW 9.4 mph15.1 kmh 29.97 in1014.9 mb 0.00 in0.0 mm 0.00 in0.0 mm 0.00 in0.0 mm
07:43 PM 57.5°F14.2°C 12.9°F-10.6°C 17% 5.6 mph NW9.0 kmh NW 7.6 mph12.2 kmh 29.97 in1014.9 mb 0.00 in0.0 mm 0.00 in0.0 mm 0.00 in0.0 mm
07:48 PM 57.1°F13.9°C 15.1°F-9.4°C 19% 5.7 mph NW9.2 kmh NW 8.0 mph12.9 kmh 29.97 in1014.9 mb 0.00 in0.0 mm 0.00 in0.0 mm 0.00 in0.0 mm
07:53 PM 56.7°F13.7°C 15.9°F-8.9°C 20% 6.7 mph NW10.8 kmh NW 10.8 mph17.4 kmh 29.97 in1014.9 mb 0.00 in0.0 mm 0.00 in0.0 mm 0.00 in0.0 mm
07:58 PM 56.6°F13.7°C 18.0°F-7.8°C 22% 6.8 mph NNW10.9 kmh NNW 10.8 mph17.4 kmh 29.97 in1014.9 mb 0.00 in0.0 mm 0.00 in0.0 mm 0.00 in0.0 mm
08:04 PM 56.2°F13.4°C 17.6°F-8.0°C 22% 5.8 mph NNW9.3 kmh NNW 9.8 mph15.8 kmh 29.97 in1014.9 mb 0.00 in0.0 mm 0.00 in0.0 mm 0.00 in0.0 mm
08:09 PM 56.0°F13.3°C 11.6°F-11.3°C 17% 6.7 mph NW10.8 kmh NW 9.8 mph15.8 kmh 29.97 in1014.9 mb 0.00 in0.0 mm 0.00 in0.0 mm 0.00 in0.0 mm
08:15 PM 56.2°F13.4°C 20.6°F-6.3°C 25% 9.6 mph NW15.4 kmh NW 12.0 mph19.3 kmh 29.97 in1014.9 mb 0.00 in0.0 mm 0.00 in0.0 mm 0.00 in0.0 mm
08:20 PM 56.0°F13.3°C 20.4°F-6.4°C 25% 7.1 mph NNW11.4 kmh NNW 14.4 mph23.2 kmh 29.97 in1014.9 mb 0.00 in0.0 mm 0.00 in0.0 mm 0.00 in0.0 mm
08:25 PM 55.5°F13.1°C 20.9°F-6.2°C 26% 5.0 mph NW8.0 kmh NW 14.4 mph23.2 kmh 29.97 in1014.9 mb 0.00 in0.0 mm 0.00 in0.0 mm 0.00 in0.0 mm
08:30 PM 55.1°F12.8°C 21.4°F-5.9°C 27% 5.0 mph NW8.0 kmh NW 9.4 mph15.1 kmh 29.97 in1014.9 mb 0.00 in0.0 mm 0.00 in0.0 mm 0.00 in0.0 mm
08:35 PM 54.8°F12.7°C 22.0°F-5.6°C 28% 5.0 mph WNW8.0 kmh WNW 6.8 mph10.9 kmh 29.97 in1014.9 mb 0.00 in0.0 mm 0.00 in0.0 mm 0.00 in0.0 mm
08:40 PM 54.4°F12.4°C 21.7°F-5.7°C 28% 4.8 mph NNW7.7 kmh NNW 6.8 mph10.9 kmh 30.00 in1015.9 mb 0.00 in0.0 mm 0.00 in0.0 mm 0.00 in0.0 mm
08:45 PM 54.0°F12.2°C 21.3°F-5.9°C 28% 3.7 mph NW6.0 kmh NW 6.2 mph10.0 kmh 30.00 in1015.9 mb 0.00 in0.0 mm 0.00 in0.0 mm 0.00 in0.0 mm
08:50 PM 53.7°F12.1°C 21.9°F-5.6°C 29% 4.9 mph NW7.9 kmh NW 5.8 mph9.3 kmh 30.00 in1015.9 mb 0.00 in0.0 mm 0.00 in0.0 mm 0.00 in0.0 mm
08:55 PM 53.5°F11.9°C 22.5°F-5.3°C 30% 5.2 mph NW8.4 kmh NW 6.2 mph10.0 kmh 30.00 in1015.9 mb 0.00 in0.0 mm 0.00 in0.0 mm 0.00 in0.0 mm
09:00 PM 53.3°F11.8°C 22.3°F-5.4°C 30% 5.9 mph NNW9.5 kmh NNW 8.6 mph13.8 kmh 30.00 in1015.9 mb 0.00 in0.0 mm 0.00 in0.0 mm 0.00 in0.0 mm
09:05 PM 53.0°F11.7°C 22.8°F-5.1°C 31% 6.0 mph NNW9.7 kmh NNW 8.6 mph13.8 kmh 30.00 in1015.9 mb 0.00 in0.0 mm 0.00 in0.0 mm 0.00 in0.0 mm
09:10 PM 52.8°F11.6°C 22.7°F-5.2°C 31% 5.9 mph NNW9.5 kmh NNW 7.6 mph12.2 kmh 30.00 in1015.9 mb 0.00 in0.0 mm 0.00 in0.0 mm 0.00 in0.0 mm
09:16 PM 52.6°F11.4°C 23.2°F-4.9°C 32% 5.9 mph NNW9.5 kmh NNW 7.6 mph12.2 kmh 30.00 in1015.9 mb 0.00 in0.0 mm 0.00 in0.0 mm 0.00 in0.0 mm
09:21 PM 52.4°F11.3°C 23.1°F-4.9°C 32% 4.0 mph NNW6.4 kmh NNW 7.2 mph11.6 kmh 30.00 in1015.9 mb 0.00 in0.0 mm 0.00 in0.0 mm 0.00 in0.0 mm
09:27 PM 51.9°F11.1°C 23.4°F-4.8°C 33% 4.3 mph NW6.9 kmh NW 6.8 mph10.9 kmh 30.03 in1016.9 mb 0.00 in0.0 mm 0.00 in0.0 mm 0.00 in0.0 mm
09:32 PM 51.7°F10.9°C 23.2°F-4.9°C 33% 3.3 mph NW5.3 kmh NW 7.6 mph12.2 kmh 30.03 in1016.9 mb 0.00 in0.0 mm 0.00 in0.0 mm 0.00 in0.0 mm
09:37 PM 51.5°F10.8°C 23.7°F-4.6°C 34% 5.1 mph W8.2 kmh W 7.6 mph12.2 kmh 30.06 in1017.9 mb 0.00 in0.0 mm 0.00 in0.0 mm 0.00 in0.0 mm
09:42 PM 51.0°F10.6°C 23.3°F-4.8°C 34% 3.3 mph N5.3 kmh N 6.2 mph10.0 kmh 30.06 in1017.9 mb 0.00 in0.0 mm 0.00 in0.0 mm 0.00 in0.0 mm
09:48 PM 50.6°F10.3°C 22.9°F-5.1°C 34% 5.3 mph ENE8.5 kmh ENE 8.0 mph12.9 kmh 30.06 in1017.9 mb 0.00 in0.0 mm 0.00 in0.0 mm 0.00 in0.0 mm
09:53 PM 50.4°F10.2°C 24.1°F-4.4°C 36% 6.8 mph NNE10.9 kmh NNE 9.4 mph15.1 kmh 30.03 in1016.9 mb 0.00 in0.0 mm 0.00 in0.0 mm 0.00 in0.0 mm
10:01 PM 50.6°F10.3°C 24.3°F-4.3°C 36% 6.3 mph NNW10.1 kmh NNW 13.8 mph22.2 kmh 30.03 in1016.9 mb 0.00 in0.0 mm 0.00 in0.0 mm 0.00 in0.0 mm
10:06 PM 50.6°F10.3°C 24.3°F-4.3°C 36% 6.5 mph NNW10.5 kmh NNW 9.8 mph15.8 kmh 30.03 in1016.9 mb 0.00 in0.0 mm 0.00 in0.0 mm 0.00 in0.0 mm
10:11 PM 50.4°F10.2°C 24.1°F-4.4°C 36% 6.1 mph NNW9.8 kmh NNW 9.8 mph15.8 kmh 30.00 in1015.9 mb 0.00 in0.0 mm 0.00 in0.0 mm 0.00 in0.0 mm
10:16 PM 50.4°F10.2°C 24.1°F-4.4°C 36% 4.2 mph NW6.8 kmh NW 8.6 mph13.8 kmh 30.00 in1015.9 mb 0.00 in0.0 mm 0.00 in0.0 mm 0.00 in0.0 mm
10:21 PM 50.3°F10.2°C 24.0°F-4.4°C 36% 4.3 mph NNW6.9 kmh NNW 9.4 mph15.1 kmh 30.00 in1015.9 mb 0.00 in0.0 mm 0.00 in0.0 mm 0.00 in0.0 mm
10:26 PM 49.9°F9.9°C 23.7°F-4.6°C 36% 3.2 mph NNE5.1 kmh NNE 9.4 mph15.1 kmh 30.03 in1016.9 mb 0.00 in0.0 mm 0.00 in0.0 mm 0.00 in0.0 mm
10:31 PM 49.4°F9.7°C 23.9°F-4.5°C 37% 3.6 mph ENE5.8 kmh ENE 4.4 mph7.1 kmh 30.03 in1016.9 mb 0.00 in0.0 mm 0.00 in0.0 mm 0.00 in0.0 mm
10:36 PM 48.8°F9.3°C 23.4°F-4.8°C 37% 6.1 mph NE9.8 kmh NE 8.0 mph12.9 kmh 30.03 in1016.9 mb 0.00 in0.0 mm 0.00 in0.0 mm 0.00 in0.0 mm
10:43 PM 49.4°F9.7°C 23.9°F-4.5°C 37% 10.2 mph N16.4 kmh N 13.0 mph20.9 kmh 30.06 in1017.9 mb 0.00 in0.0 mm 0.00 in0.0 mm 0.00 in0.0 mm
10:48 PM 49.4°F9.7°C 23.9°F-4.5°C 37% 8.3 mph NNW13.4 kmh NNW 16.2 mph26.1 kmh 30.06 in1017.9 mb 0.00 in0.0 mm 0.00 in0.0 mm 0.00 in0.0 mm
10:53 PM 49.2°F9.6°C 23.7°F-4.6°C 37% 8.5 mph NNW13.7 kmh NNW 16.2 mph26.1 kmh 30.03 in1016.9 mb 0.00 in0.0 mm 0.00 in0.0 mm 0.00 in0.0 mm
10:58 PM 48.8°F9.3°C 23.4°F-4.8°C 37% 2.3 mph ESE3.7 kmh ESE 14.4 mph23.2 kmh 30.03 in1016.9 mb 0.00 in0.0 mm 0.00 in0.0 mm 0.00 in0.0 mm
11:05 PM 48.3°F9.1°C 22.9°F-5.1°C 37% 4.0 mph ENE6.4 kmh ENE 7.6 mph12.2 kmh 30.03 in1016.9 mb 0.00 in0.0 mm 0.00 in0.0 mm 0.00 in0.0 mm
11:10 PM 48.3°F9.1°C 22.9°F-5.1°C 37% 4.2 mph NNE6.8 kmh NNE 8.0 mph12.9 kmh 30.06 in1017.9 mb 0.00 in0.0 mm 0.00 in0.0 mm 0.00 in0.0 mm
11:15 PM 48.3°F9.1°C 22.9°F-5.1°C 37% 10.3 mph N16.6 kmh N 12.6 mph20.3 kmh 30.06 in1017.9 mb 0.00 in0.0 mm 0.00 in0.0 mm 0.00 in0.0 mm
11:20 PM 48.3°F9.1°C 22.9°F-5.1°C 37% 13.2 mph N21.2 kmh N 17.4 mph28.0 kmh 30.06 in1017.9 mb 0.00 in0.0 mm 0.00 in0.0 mm 0.00 in0.0 mm
11:26 PM 48.1°F8.9°C 22.7°F-5.2°C 37% 9.4 mph N15.1 kmh N 19.6 mph31.5 kmh 30.06 in1017.9 mb 0.00 in0.0 mm 0.00 in0.0 mm 0.00 in0.0 mm
11:31 PM 48.1°F8.9°C 22.7°F-5.2°C 37% 7.3 mph 11.7 kmh 16.2 mph26.1 kmh 30.06 in1017.9 mb 0.00 in0.0 mm 0.00 in0.0 mm 0.00 in0.0 mm
11:36 PM 48.1°F8.9°C 22.7°F-5.2°C 37% 9.1 mph N14.6 kmh N 17.4 mph28.0 kmh 30.06 in1017.9 mb 0.00 in0.0 mm 0.00 in0.0 mm 0.00 in0.0 mm
11:41 PM 47.7°F8.7°C 23.0°F-5.0°C 38% 9.7 mph NE15.6 kmh NE 17.4 mph28.0 kmh 30.09 in1019.0 mb 0.00 in0.0 mm 0.00 in0.0 mm 0.00 in0.0 mm
11:47 PM 47.4°F8.6°C 22.8°F-5.1°C 38% 6.3 mph NNE10.1 kmh NNE 17.0 mph27.4 kmh 30.09 in1019.0 mb 0.00 in0.0 mm 0.00 in0.0 mm 0.00 in0.0 mm
11:52 PM 47.6°F8.7°C 22.9°F-5.1°C 38% 13.3 mph NNE21.4 kmh NNE 21.0 mph33.8 kmh 30.09 in1019.0 mb 0.00 in0.0 mm 0.00 in0.0 mm 0.00 in0.0 mm
11:58 PM 47.4°F8.6°C 22.8°F-5.1°C 38% 8.7 mph N14.0 kmh N 21.0 mph33.8 kmh 30.09 in1019.0 mb 0.00 in0.0 mm 0.00 in0.0 mm 0.00 in0.0 mm